Jamestown, Indiana
Current Conditions -  °F | °C
As of 5:53 PM on Tuesday 25 Nov 2014 (Local Time) from KEYE Reporting Station
Overcast Overcast  
Wind Chill: 22°   Ceiling: 1500
Heat Index: 27°   Visibility: 10mi
Dew Point: 22°   Wind: 5mph
Humidity: 81%   Direction: 280°W
Pressure: 30.16"   Gusts: NA
Location:  39.93°N, 86.63°W
Report Text: KEYE 252253Z AUTO 28004KT 10SM OVC015 M03/M06 A3016 RMK AO2 SLP222 T10281056 $
Loading
Personal Weather Stations






























Interactive Weather Map New forecast layout! Learn more

10-Day Weather Forecast

Advertisements
Track Severe Weather on mobile